sensor_id;sensor_type;location;lat;lon;timestamp;P1;durP1;ratioP1;P2;durP2;ratioP2
60665;SDS011;59128;44.642;21.188;2022-08-18T00:02:20;10.18;;;6.60;;
60665;SDS011;59128;44.642;21.188;2022-08-18T00:04:47;9.48;;;5.40;;
60665;SDS011;59128;44.642;21.188;2022-08-18T00:07:14;17.08;;;6.25;;
60665;SDS011;59128;44.642;21.188;2022-08-18T00:09:41;15.93;;;7.22;;
60665;SDS011;59128;44.642;21.188;2022-08-18T00:12:15;9.20;;;5.90;;
60665;SDS011;59128;44.642;21.188;2022-08-18T00:14:42;14.88;;;6.10;;
60665;SDS011;59128;44.642;21.188;2022-08-18T00:17:09;10.00;;;5.45;;
60665;SDS011;59128;44.642;21.188;2022-08-18T00:19:35;7.83;;;5.80;;
60665;SDS011;59128;44.642;21.188;2022-08-18T00:22:01;9.53;;;5.97;;
60665;SDS011;59128;44.642;21.188;2022-08-18T00:24:27;11.70;;;6.03;;
60665;SDS011;59128;44.642;21.188;2022-08-18T00:26:55;8.02;;;5.63;;
60665;SDS011;59128;44.642;21.188;2022-08-18T00:29:21;10.25;;;5.85;;
60665;SDS011;59128;44.642;21.188;2022-08-18T00:31:47;8.02;;;5.82;;
60665;SDS011;59128;44.642;21.188;2022-08-18T00:34:14;7.43;;;5.57;;
60665;SDS011;59128;44.642;21.188;2022-08-18T00:36:40;6.55;;;5.57;;
60665;SDS011;59128;44.642;21.188;2022-08-18T00:39:06;6.70;;;5.47;;
60665;SDS011;59128;44.642;21.188;2022-08-18T00:41:32;6.85;;;6.20;;
60665;SDS011;59128;44.642;21.188;2022-08-18T00:43:58;7.30;;;5.57;;
60665;SDS011;59128;44.642;21.188;2022-08-18T00:46:27;6.53;;;5.93;;
60665;SDS011;59128;44.642;21.188;2022-08-18T00:48:53;6.07;;;5.47;;
60665;SDS011;59128;44.642;21.188;2022-08-18T00:53:47;7.50;;;5.60;;
60665;SDS011;59128;44.642;21.188;2022-08-18T00:56:20;6.65;;;5.80;;
60665;SDS011;59128;44.642;21.188;2022-08-18T00:58:51;7.00;;;5.85;;
60665;SDS011;59128;44.642;21.188;2022-08-18T01:01:18;6.73;;;5.93;;
60665;SDS011;59128;44.642;21.188;2022-08-18T01:03:47;7.00;;;5.78;;
60665;SDS011;59128;44.642;21.188;2022-08-18T01:06:39;6.32;;;5.60;;
60665;SDS011;59128;44.642;21.188;2022-08-18T01:09:04;8.55;;;6.03;;
60665;SDS011;59128;44.642;21.188;2022-08-18T01:11:31;6.82;;;5.75;;
60665;SDS011;59128;44.642;21.188;2022-08-18T01:13:58;8.27;;;6.07;;
60665;SDS011;59128;44.642;21.188;2022-08-18T01:16:24;9.70;;;6.43;;
60665;SDS011;59128;44.642;21.188;2022-08-18T01:19:08;7.55;;;6.35;;
60665;SDS011;59128;44.642;21.188;2022-08-18T01:21:56;6.77;;;6.07;;
60665;SDS011;59128;44.642;21.188;2022-08-18T01:24:28;6.55;;;5.90;;
60665;SDS011;59128;44.642;21.188;2022-08-18T01:27:14;8.20;;;6.90;;
60665;SDS011;59128;44.642;21.188;2022-08-18T01:29:43;7.23;;;5.83;;
60665;SDS011;59128;44.642;21.188;2022-08-18T01:32:09;7.55;;;5.97;;
60665;SDS011;59128;44.642;21.188;2022-08-18T01:34:36;8.63;;;6.82;;
60665;SDS011;59128;44.642;21.188;2022-08-18T01:37:03;8.85;;;6.15;;
60665;SDS011;59128;44.642;21.188;2022-08-18T01:39:29;9.45;;;6.50;;
60665;SDS011;59128;44.642;21.188;2022-08-18T01:41:55;7.80;;;6.30;;
60665;SDS011;59128;44.642;21.188;2022-08-18T01:44:21;8.52;;;5.90;;
60665;SDS011;59128;44.642;21.188;2022-08-18T01:46:47;10.40;;;6.68;;
60665;SDS011;59128;44.642;21.188;2022-08-18T01:49:14;7.03;;;6.15;;
60665;SDS011;59128;44.642;21.188;2022-08-18T01:51:42;7.97;;;6.13;;
60665;SDS011;59128;44.642;21.188;2022-08-18T01:54:09;8.10;;;6.82;;
60665;SDS011;59128;44.642;21.188;2022-08-18T01:56:35;6.88;;;6.20;;
60665;SDS011;59128;44.642;21.188;2022-08-18T01:59:02;6.78;;;6.05;;
60665;SDS011;59128;44.642;21.188;2022-08-18T02:01:30;7.70;;;6.68;;
60665;SDS011;59128;44.642;21.188;2022-08-18T02:03:57;7.05;;;6.43;;
60665;SDS011;59128;44.642;21.188;2022-08-18T02:06:24;7.38;;;6.63;;
60665;SDS011;59128;44.642;21.188;2022-08-18T02:08:50;7.37;;;6.33;;
60665;SDS011;59128;44.642;21.188;2022-08-18T02:11:16;8.57;;;7.10;;
60665;SDS011;59128;44.642;21.188;2022-08-18T02:13:43;9.45;;;6.80;;
60665;SDS011;59128;44.642;21.188;2022-08-18T02:16:09;8.45;;;7.22;;
60665;SDS011;59128;44.642;21.188;2022-08-18T02:18:35;8.00;;;7.00;;
60665;SDS011;59128;44.642;21.188;2022-08-18T02:21:06;7.57;;;6.77;;
60665;SDS011;59128;44.642;21.188;2022-08-18T02:23:32;8.02;;;7.10;;
60665;SDS011;59128;44.642;21.188;2022-08-18T02:26:02;7.32;;;6.72;;
60665;SDS011;59128;44.642;21.188;2022-08-18T02:28:28;7.78;;;6.65;;
60665;SDS011;59128;44.642;21.188;2022-08-18T02:30:54;7.60;;;6.80;;
60665;SDS011;59128;44.642;21.188;2022-08-18T02:33:20;7.85;;;6.82;;
60665;SDS011;59128;44.642;21.188;2022-08-18T02:35:52;7.43;;;6.72;;
60665;SDS011;59128;44.642;21.188;2022-08-18T02:38:18;9.20;;;6.88;;
60665;SDS011;59128;44.642;21.188;2022-08-18T02:40:44;8.82;;;6.97;;
60665;SDS011;59128;44.642;21.188;2022-08-18T02:43:10;9.38;;;7.22;;
60665;SDS011;59128;44.642;21.188;2022-08-18T02:45:37;9.40;;;7.30;;
60665;SDS011;59128;44.642;21.188;2022-08-18T02:48:04;9.20;;;7.18;;
60665;SDS011;59128;44.642;21.188;2022-08-18T02:50:30;8.70;;;6.97;;
60665;SDS011;59128;44.642;21.188;2022-08-18T02:52:56;9.00;;;6.97;;
60665;SDS011;59128;44.642;21.188;2022-08-18T02:55:22;9.57;;;7.60;;
60665;SDS011;59128;44.642;21.188;2022-08-18T02:57:50;8.68;;;7.50;;
60665;SDS011;59128;44.642;21.188;2022-08-18T03:00:17;8.80;;;7.10;;
60665;SDS011;59128;44.642;21.188;2022-08-18T03:02:50;8.23;;;6.97;;
60665;SDS011;59128;44.642;21.188;2022-08-18T03:05:17;10.60;;;8.00;;
60665;SDS011;59128;44.642;21.188;2022-08-18T03:07:44;12.30;;;8.35;;
60665;SDS011;59128;44.642;21.188;2022-08-18T03:10:11;8.95;;;7.43;;
60665;SDS011;59128;44.642;21.188;2022-08-18T03:12:41;10.45;;;8.02;;
60665;SDS011;59128;44.642;21.188;2022-08-18T03:15:07;10.50;;;8.15;;
60665;SDS011;59128;44.642;21.188;2022-08-18T03:17:36;9.98;;;7.75;;
60665;SDS011;59128;44.642;21.188;2022-08-18T03:20:02;8.05;;;7.25;;
60665;SDS011;59128;44.642;21.188;2022-08-18T03:22:28;8.77;;;7.07;;
60665;SDS011;59128;44.642;21.188;2022-08-18T03:24:54;7.70;;;6.90;;
60665;SDS011;59128;44.642;21.188;2022-08-18T03:27:20;8.55;;;7.65;;
60665;SDS011;59128;44.642;21.188;2022-08-18T03:29:46;9.05;;;7.35;;
60665;SDS011;59128;44.642;21.188;2022-08-18T03:32:12;8.43;;;6.90;;
60665;SDS011;59128;44.642;21.188;2022-08-18T03:34:38;8.20;;;7.40;;
60665;SDS011;59128;44.642;21.188;2022-08-18T03:37:06;8.27;;;7.47;;
60665;SDS011;59128;44.642;21.188;2022-08-18T03:39:33;7.70;;;6.95;;
60665;SDS011;59128;44.642;21.188;2022-08-18T03:41:59;8.68;;;7.55;;
60665;SDS011;59128;44.642;21.188;2022-08-18T03:44:26;9.37;;;7.20;;
60665;SDS011;59128;44.642;21.188;2022-08-18T03:46:53;8.65;;;7.32;;
60665;SDS011;59128;44.642;21.188;2022-08-18T03:49:19;8.43;;;7.28;;
60665;SDS011;59128;44.642;21.188;2022-08-18T03:51:45;8.20;;;7.32;;
60665;SDS011;59128;44.642;21.188;2022-08-18T03:54:13;9.38;;;7.60;;
60665;SDS011;59128;44.642;21.188;2022-08-18T03:56:41;12.85;;;7.85;;
60665;SDS011;59128;44.642;21.188;2022-08-18T03:59:09;10.52;;;8.18;;
60665;SDS011;59128;44.642;21.188;2022-08-18T04:01:37;10.05;;;8.02;;
60665;SDS011;59128;44.642;21.188;2022-08-18T04:04:07;11.27;;;8.20;;
60665;SDS011;59128;44.642;21.188;2022-08-18T04:06:34;11.75;;;8.57;;
60665;SDS011;59128;44.642;21.188;2022-08-18T04:09:03;11.82;;;8.75;;
60665;SDS011;59128;44.642;21.188;2022-08-18T04:11:31;11.23;;;8.70;;
60665;SDS011;59128;44.642;21.188;2022-08-18T04:13:58;9.83;;;8.73;;
60665;SDS011;59128;44.642;21.188;2022-08-18T04:16:24;11.63;;;8.68;;
60665;SDS011;59128;44.642;21.188;2022-08-18T04:18:50;9.25;;;8.00;;
60665;SDS011;59128;44.642;21.188;2022-08-18T04:21:17;10.45;;;8.15;;
60665;SDS011;59128;44.642;21.188;2022-08-18T04:23:43;11.38;;;9.43;;
60665;SDS011;59128;44.642;21.188;2022-08-18T04:26:10;11.07;;;9.40;;
60665;SDS011;59128;44.642;21.188;2022-08-18T04:28:37;12.50;;;10.27;;
60665;SDS011;59128;44.642;21.188;2022-08-18T04:31:08;13.43;;;10.65;;
60665;SDS011;59128;44.642;21.188;2022-08-18T04:33:34;13.20;;;9.93;;
60665;SDS011;59128;44.642;21.188;2022-08-18T04:36:05;11.65;;;9.48;;
60665;SDS011;59128;44.642;21.188;2022-08-18T04:38:31;11.00;;;8.25;;
60665;SDS011;59128;44.642;21.188;2022-08-18T04:40:57;11.63;;;8.18;;
60665;SDS011;59128;44.642;21.188;2022-08-18T04:43:23;9.88;;;8.30;;
60665;SDS011;59128;44.642;21.188;2022-08-18T04:45:49;9.05;;;7.95;;
60665;SDS011;59128;44.642;21.188;2022-08-18T04:48:16;10.10;;;8.35;;
60665;SDS011;59128;44.642;21.188;2022-08-18T04:50:42;9.43;;;8.43;;
60665;SDS011;59128;44.642;21.188;2022-08-18T04:53:08;9.55;;;8.27;;
60665;SDS011;59128;44.642;21.188;2022-08-18T04:55:53;10.73;;;8.40;;
60665;SDS011;59128;44.642;21.188;2022-08-18T04:58:20;10.00;;;8.23;;
60665;SDS011;59128;44.642;21.188;2022-08-18T05:00:54;9.00;;;8.10;;
60665;SDS011;59128;44.642;21.188;2022-08-18T05:03:20;9.30;;;8.10;;
60665;SDS011;59128;44.642;21.188;2022-08-18T05:05:48;9.35;;;7.63;;
60665;SDS011;59128;44.642;21.188;2022-08-18T05:08:14;8.98;;;7.90;;
60665;SDS011;59128;44.642;21.188;2022-08-18T05:10:40;8.77;;;7.82;;
60665;SDS011;59128;44.642;21.188;2022-08-18T05:13:06;8.90;;;8.00;;
60665;SDS011;59128;44.642;21.188;2022-08-18T05:15:32;11.10;;;7.82;;
60665;SDS011;59128;44.642;21.188;2022-08-18T05:17:58;9.82;;;7.60;;
60665;SDS011;59128;44.642;21.188;2022-08-18T05:20:24;8.38;;;7.57;;
60665;SDS011;59128;44.642;21.188;2022-08-18T05:22:50;7.80;;;7.10;;
60665;SDS011;59128;44.642;21.188;2022-08-18T05:25:16;8.38;;;7.03;;
60665;SDS011;59128;44.642;21.188;2022-08-18T05:27:42;7.97;;;7.10;;
60665;SDS011;59128;44.642;21.188;2022-08-18T05:30:09;7.93;;;7.20;;
60665;SDS011;59128;44.642;21.188;2022-08-18T05:32:39;8.10;;;7.30;;
60665;SDS011;59128;44.642;21.188;2022-08-18T05:35:11;9.27;;;7.95;;
60665;SDS011;59128;44.642;21.188;2022-08-18T05:40:07;8.20;;;7.40;;
60665;SDS011;59128;44.642;21.188;2022-08-18T05:42:34;8.18;;;7.00;;
60665;SDS011;59128;44.642;21.188;2022-08-18T05:45:00;7.97;;;7.18;;
60665;SDS011;59128;44.642;21.188;2022-08-18T05:47:28;8.17;;;7.07;;
60665;SDS011;59128;44.642;21.188;2022-08-18T05:49:56;8.18;;;7.03;;
60665;SDS011;59128;44.642;21.188;2022-08-18T05:53:08;7.00;;;6.35;;
60665;SDS011;59128;44.642;21.188;2022-08-18T05:55:11;7.47;;;6.78;;
60665;SDS011;59128;44.642;21.188;2022-08-18T05:58:08;7.13;;;6.43;;
60665;SDS011;59128;44.642;21.188;2022-08-18T06:00:35;6.93;;;6.22;;
60665;SDS011;59128;44.642;21.188;2022-08-18T06:03:12;8.63;;;6.55;;
60665;SDS011;59128;44.642;21.188;2022-08-18T06:05:43;8.23;;;6.60;;
60665;SDS011;59128;44.642;21.188;2022-08-18T06:08:12;9.45;;;6.28;;
60665;SDS011;59128;44.642;21.188;2022-08-18T06:10:48;7.17;;;6.47;;
60665;SDS011;59128;44.642;21.188;2022-08-18T06:13:14;7.93;;;6.38;;
60665;SDS011;59128;44.642;21.188;2022-08-18T06:18:18;7.43;;;6.18;;
60665;SDS011;59128;44.642;21.188;2022-08-18T06:28:43;7.20;;;5.40;;
60665;SDS011;59128;44.642;21.188;2022-08-18T06:31:35;7.55;;;6.07;;
60665;SDS011;59128;44.642;21.188;2022-08-18T06:36:42;9.93;;;5.82;;
60665;SDS011;59128;44.642;21.188;2022-08-18T06:39:28;6.32;;;5.38;;
60665;SDS011;59128;44.642;21.188;2022-08-18T06:41:56;6.25;;;5.65;;
60665;SDS011;59128;44.642;21.188;2022-08-18T06:44:30;7.30;;;5.75;;
60665;SDS011;59128;44.642;21.188;2022-08-18T06:47:00;8.18;;;6.00;;
60665;SDS011;59128;44.642;21.188;2022-08-18T06:49:41;6.57;;;5.95;;
60665;SDS011;59128;44.642;21.188;2022-08-18T06:57:33;6.70;;;5.95;;
60665;SDS011;59128;44.642;21.188;2022-08-18T07:00:03;7.32;;;5.90;;
60665;SDS011;59128;44.642;21.188;2022-08-18T07:05:06;6.25;;;5.65;;
60665;SDS011;59128;44.642;21.188;2022-08-18T07:07:37;6.65;;;5.68;;
60665;SDS011;59128;44.642;21.188;2022-08-18T07:10:05;6.53;;;5.40;;
60665;SDS011;59128;44.642;21.188;2022-08-18T07:12:32;8.30;;;4.93;;
60665;SDS011;59128;44.642;21.188;2022-08-18T07:14:59;9.63;;;5.00;;
60665;SDS011;59128;44.642;21.188;2022-08-18T07:17:30;7.18;;;4.97;;
60665;SDS011;59128;44.642;21.188;2022-08-18T07:20:02;9.00;;;4.97;;
60665;SDS011;59128;44.642;21.188;2022-08-18T07:22:29;10.50;;;4.82;;
60665;SDS011;59128;44.642;21.188;2022-08-18T07:24:56;7.88;;;4.78;;
60665;SDS011;59128;44.642;21.188;2022-08-18T07:30:14;5.45;;;4.60;;
60665;SDS011;59128;44.642;21.188;2022-08-18T07:35:27;5.85;;;5.25;;
60665;SDS011;59128;44.642;21.188;2022-08-18T07:37:59;5.90;;;5.03;;
60665;SDS011;59128;44.642;21.188;2022-08-18T07:43:00;7.75;;;4.60;;
60665;SDS011;59128;44.642;21.188;2022-08-18T07:45:30;4.97;;;4.50;;
60665;SDS011;59128;44.642;21.188;2022-08-18T07:47:58;6.28;;;4.57;;
60665;SDS011;59128;44.642;21.188;2022-08-18T07:50:27;9.05;;;4.63;;
60665;SDS011;59128;44.642;21.188;2022-08-18T08:00:31;9.40;;;5.57;;
60665;SDS011;59128;44.642;21.188;2022-08-18T08:08:22;11.02;;;9.70;;
60665;SDS011;59128;44.642;21.188;2022-08-18T08:18:58;8.57;;;4.73;;
60665;SDS011;59128;44.642;21.188;2022-08-18T08:21:30;6.75;;;4.00;;
60665;SDS011;59128;44.642;21.188;2022-08-18T08:27:08;6.80;;;4.10;;
60665;SDS011;59128;44.642;21.188;2022-08-18T08:29:39;7.20;;;3.70;;
60665;SDS011;59128;44.642;21.188;2022-08-18T08:32:14;5.43;;;3.70;;
60665;SDS011;59128;44.642;21.188;2022-08-18T08:34:50;14.88;;;4.70;;
60665;SDS011;59128;44.642;21.188;2022-08-18T08:37:19;3.70;;;3.10;;
60665;SDS011;59128;44.642;21.188;2022-08-18T08:39:50;7.75;;;3.30;;
60665;SDS011;59128;44.642;21.188;2022-08-18T08:42:36;3.67;;;3.03;;
60665;SDS011;59128;44.642;21.188;2022-08-18T08:45:08;3.30;;;2.80;;
60665;SDS011;59128;44.642;21.188;2022-08-18T08:47:49;3.55;;;2.70;;
60665;SDS011;59128;44.642;21.188;2022-08-18T08:50:17;3.85;;;2.88;;
60665;SDS011;59128;44.642;21.188;2022-08-18T08:52:46;5.93;;;3.22;;
60665;SDS011;59128;44.642;21.188;2022-08-18T08:55:16;4.28;;;2.92;;
60665;SDS011;59128;44.642;21.188;2022-08-18T08:57:48;3.42;;;3.08;;
60665;SDS011;59128;44.642;21.188;2022-08-18T09:00:14;3.22;;;2.92;;
60665;SDS011;59128;44.642;21.188;2022-08-18T09:15:37;3.67;;;2.88;;
60665;SDS011;59128;44.642;21.188;2022-08-18T09:20:56;3.20;;;2.90;;
60665;SDS011;59128;44.642;21.188;2022-08-18T09:23:27;2.97;;;2.78;;
60665;SDS011;59128;44.642;21.188;2022-08-18T09:25:56;4.82;;;3.00;;
60665;SDS011;59128;44.642;21.188;2022-08-18T09:36:11;31.02;;;5.53;;
60665;SDS011;59128;44.642;21.188;2022-08-18T09:42:36;4.00;;;3.17;;
60665;SDS011;59128;44.642;21.188;2022-08-18T09:47:12;3.95;;;2.80;;
60665;SDS011;59128;44.642;21.188;2022-08-18T09:55:04;3.45;;;2.60;;
60665;SDS011;59128;44.642;21.188;2022-08-18T09:57:33;4.45;;;3.13;;
60665;SDS011;59128;44.642;21.188;2022-08-18T10:07:38;4.37;;;2.40;;
60665;SDS011;59128;44.642;21.188;2022-08-18T10:10:13;3.47;;;3.08;;
60665;SDS011;59128;44.642;21.188;2022-08-18T10:15:27;2.95;;;2.65;;
60665;SDS011;59128;44.642;21.188;2022-08-18T10:23:11;2.88;;;2.53;;
60665;SDS011;59128;44.642;21.188;2022-08-18T10:25:58;4.57;;;2.30;;
60665;SDS011;59128;44.642;21.188;2022-08-18T10:31:16;3.80;;;3.03;;
60665;SDS011;59128;44.642;21.188;2022-08-18T10:39:13;3.25;;;2.85;;
60665;SDS011;59128;44.642;21.188;2022-08-18T10:41:47;3.70;;;3.17;;
60665;SDS011;59128;44.642;21.188;2022-08-18T10:44:15;6.70;;;2.88;;
60665;SDS011;59128;44.642;21.188;2022-08-18T10:46:43;9.57;;;3.53;;
60665;SDS011;59128;44.642;21.188;2022-08-18T10:57:15;11.88;;;3.50;;
60665;SDS011;59128;44.642;21.188;2022-08-18T11:02:12;3.75;;;3.15;;
60665;SDS011;59128;44.642;21.188;2022-08-18T11:09:34;4.97;;;3.15;;
60665;SDS011;59128;44.642;21.188;2022-08-18T11:12:02;6.32;;;3.05;;
60665;SDS011;59128;44.642;21.188;2022-08-18T11:19:52;3.97;;;3.38;;
60665;SDS011;59128;44.642;21.188;2022-08-18T11:24:51;12.40;;;3.40;;
60665;SDS011;59128;44.642;21.188;2022-08-18T11:27:22;5.78;;;3.20;;
60665;SDS011;59128;44.642;21.188;2022-08-18T11:29:48;3.72;;;2.65;;
60665;SDS011;59128;44.642;21.188;2022-08-18T11:32:20;5.35;;;2.92;;
60665;SDS011;59128;44.642;21.188;2022-08-18T11:35:31;4.43;;;3.20;;
60665;SDS011;59128;44.642;21.188;2022-08-18T11:40:26;4.43;;;3.25;;
60665;SDS011;59128;44.642;21.188;2022-08-18T11:45:47;12.05;;;3.67;;
60665;SDS011;59128;44.642;21.188;2022-08-18T11:51:30;2.83;;;2.42;;
60665;SDS011;59128;44.642;21.188;2022-08-18T11:56:27;3.88;;;2.83;;
60665;SDS011;59128;44.642;21.188;2022-08-18T12:01:34;3.60;;;3.30;;
60665;SDS011;59128;44.642;21.188;2022-08-18T12:04:07;2.80;;;2.60;;
60665;SDS011;59128;44.642;21.188;2022-08-18T12:06:35;7.05;;;2.53;;
60665;SDS011;59128;44.642;21.188;2022-08-18T12:09:03;3.60;;;2.67;;
60665;SDS011;59128;44.642;21.188;2022-08-18T12:11:32;5.03;;;2.65;;
60665;SDS011;59128;44.642;21.188;2022-08-18T12:14:00;29.50;;;5.07;;
60665;SDS011;59128;44.642;21.188;2022-08-18T12:16:34;3.72;;;2.75;;
60665;SDS011;59128;44.642;21.188;2022-08-18T12:19:01;8.55;;;2.88;;
60665;SDS011;59128;44.642;21.188;2022-08-18T12:21:27;4.65;;;3.10;;
60665;SDS011;59128;44.642;21.188;2022-08-18T12:23:53;3.40;;;2.75;;
60665;SDS011;59128;44.642;21.188;2022-08-18T12:26:20;3.55;;;2.65;;
60665;SDS011;59128;44.642;21.188;2022-08-18T12:28:46;3.17;;;2.70;;
60665;SDS011;59128;44.642;21.188;2022-08-18T12:31:12;3.15;;;2.80;;
60665;SDS011;59128;44.642;21.188;2022-08-18T12:33:38;3.65;;;2.65;;
60665;SDS011;59128;44.642;21.188;2022-08-18T12:36:04;4.65;;;3.05;;
60665;SDS011;59128;44.642;21.188;2022-08-18T12:38:31;3.72;;;2.50;;
60665;SDS011;59128;44.642;21.188;2022-08-18T12:40:57;3.05;;;2.75;;
60665;SDS011;59128;44.642;21.188;2022-08-18T12:43:24;9.13;;;3.05;;
60665;SDS011;59128;44.642;21.188;2022-08-18T12:45:50;4.05;;;2.53;;
60665;SDS011;59128;44.642;21.188;2022-08-18T12:48:16;4.30;;;2.70;;
60665;SDS011;59128;44.642;21.188;2022-08-18T12:50:43;2.90;;;2.40;;
60665;SDS011;59128;44.642;21.188;2022-08-18T12:53:10;4.00;;;2.65;;
60665;SDS011;59128;44.642;21.188;2022-08-18T12:55:39;2.55;;;2.30;;
60665;SDS011;59128;44.642;21.188;2022-08-18T12:58:05;7.10;;;3.03;;
60665;SDS011;59128;44.642;21.188;2022-08-18T13:00:32;3.72;;;2.60;;
60665;SDS011;59128;44.642;21.188;2022-08-18T13:02:59;4.78;;;3.28;;
60665;SDS011;59128;44.642;21.188;2022-08-18T13:05:25;3.85;;;2.70;;
60665;SDS011;59128;44.642;21.188;2022-08-18T13:07:52;4.18;;;2.80;;
60665;SDS011;59128;44.642;21.188;2022-08-18T13:10:18;3.38;;;2.47;;
60665;SDS011;59128;44.642;21.188;2022-08-18T13:12:44;6.55;;;2.63;;
60665;SDS011;59128;44.642;21.188;2022-08-18T13:15:10;4.93;;;2.38;;
60665;SDS011;59128;44.642;21.188;2022-08-18T13:17:37;3.50;;;2.30;;
60665;SDS011;59128;44.642;21.188;2022-08-18T13:20:04;2.92;;;2.60;;
60665;SDS011;59128;44.642;21.188;2022-08-18T13:22:31;4.78;;;2.63;;
60665;SDS011;59128;44.642;21.188;2022-08-18T13:24:57;5.07;;;2.85;;
60665;SDS011;59128;44.642;21.188;2022-08-18T13:27:23;5.47;;;2.90;;
60665;SDS011;59128;44.642;21.188;2022-08-18T13:29:49;2.50;;;2.30;;
60665;SDS011;59128;44.642;21.188;2022-08-18T13:32:15;8.38;;;2.83;;
60665;SDS011;59128;44.642;21.188;2022-08-18T13:34:42;4.78;;;2.63;;
60665;SDS011;59128;44.642;21.188;2022-08-18T13:37:08;13.10;;;3.35;;
60665;SDS011;59128;44.642;21.188;2022-08-18T13:39:34;4.65;;;2.83;;
60665;SDS011;59128;44.642;21.188;2022-08-18T13:42:01;3.15;;;2.60;;
60665;SDS011;59128;44.642;21.188;2022-08-18T13:44:27;5.80;;;2.92;;
60665;SDS011;59128;44.642;21.188;2022-08-18T13:46:54;3.22;;;2.90;;
60665;SDS011;59128;44.642;21.188;2022-08-18T13:49:21;2.88;;;2.25;;
60665;SDS011;59128;44.642;21.188;2022-08-18T13:51:48;4.50;;;2.53;;
60665;SDS011;59128;44.642;21.188;2022-08-18T13:54:25;5.15;;;2.70;;
60665;SDS011;59128;44.642;21.188;2022-08-18T13:56:51;2.90;;;2.67;;
60665;SDS011;59128;44.642;21.188;2022-08-18T13:59:18;3.63;;;2.63;;
60665;SDS011;59128;44.642;21.188;2022-08-18T14:01:45;3.92;;;2.50;;
60665;SDS011;59128;44.642;21.188;2022-08-18T14:04:12;3.83;;;2.70;;
60665;SDS011;59128;44.642;21.188;2022-08-18T14:06:39;5.50;;;2.50;;
60665;SDS011;59128;44.642;21.188;2022-08-18T14:09:05;4.15;;;2.50;;
60665;SDS011;59128;44.642;21.188;2022-08-18T14:11:32;4.25;;;2.63;;
60665;SDS011;59128;44.642;21.188;2022-08-18T14:14:00;4.10;;;2.78;;
60665;SDS011;59128;44.642;21.188;2022-08-18T14:16:27;3.45;;;2.58;;
60665;SDS011;59128;44.642;21.188;2022-08-18T14:18:53;3.45;;;2.90;;
60665;SDS011;59128;44.642;21.188;2022-08-18T14:21:41;3.13;;;2.90;;
60665;SDS011;59128;44.642;21.188;2022-08-18T14:24:27;3.55;;;3.25;;
60665;SDS011;59128;44.642;21.188;2022-08-18T14:26:53;3.45;;;2.78;;
60665;SDS011;59128;44.642;21.188;2022-08-18T14:29:19;3.17;;;2.85;;
60665;SDS011;59128;44.642;21.188;2022-08-18T14:31:46;4.35;;;2.97;;
60665;SDS011;59128;44.642;21.188;2022-08-18T14:34:13;20.75;;;4.38;;
60665;SDS011;59128;44.642;21.188;2022-08-18T14:36:39;5.68;;;3.15;;
60665;SDS011;59128;44.642;21.188;2022-08-18T14:39:05;2.95;;;2.75;;
60665;SDS011;59128;44.642;21.188;2022-08-18T14:41:31;4.57;;;3.40;;
60665;SDS011;59128;44.642;21.188;2022-08-18T14:43:58;5.88;;;3.00;;
60665;SDS011;59128;44.642;21.188;2022-08-18T14:46:25;6.25;;;2.90;;
60665;SDS011;59128;44.642;21.188;2022-08-18T14:48:51;4.78;;;2.85;;
60665;SDS011;59128;44.642;21.188;2022-08-18T14:51:17;14.70;;;3.95;;
60665;SDS011;59128;44.642;21.188;2022-08-18T14:53:43;12.30;;;3.60;;
60665;SDS011;59128;44.642;21.188;2022-08-18T14:56:10;3.13;;;2.65;;
60665;SDS011;59128;44.642;21.188;2022-08-18T14:58:37;10.60;;;3.13;;
60665;SDS011;59128;44.642;21.188;2022-08-18T15:01:05;13.93;;;3.42;;
60665;SDS011;59128;44.642;21.188;2022-08-18T15:03:32;4.80;;;3.22;;
60665;SDS011;59128;44.642;21.188;2022-08-18T15:06:00;7.47;;;2.92;;
60665;SDS011;59128;44.642;21.188;2022-08-18T15:08:27;3.92;;;3.08;;
60665;SDS011;59128;44.642;21.188;2022-08-18T15:10:53;7.18;;;3.50;;
60665;SDS011;59128;44.642;21.188;2022-08-18T15:13:19;5.15;;;3.20;;
60665;SDS011;59128;44.642;21.188;2022-08-18T15:15:46;4.07;;;3.15;;
60665;SDS011;59128;44.642;21.188;2022-08-18T15:18:12;3.33;;;3.03;;
60665;SDS011;59128;44.642;21.188;2022-08-18T15:20:38;4.25;;;3.00;;
60665;SDS011;59128;44.642;21.188;2022-08-18T15:23:23;5.68;;;3.38;;
60665;SDS011;59128;44.642;21.188;2022-08-18T15:26:08;4.50;;;3.58;;
60665;SDS011;59128;44.642;21.188;2022-08-18T15:28:35;4.05;;;2.85;;
60665;SDS011;59128;44.642;21.188;2022-08-18T15:31:02;8.35;;;3.53;;
60665;SDS011;59128;44.642;21.188;2022-08-18T15:33:28;4.40;;;3.10;;
60665;SDS011;59128;44.642;21.188;2022-08-18T15:35:54;5.05;;;3.30;;
60665;SDS011;59128;44.642;21.188;2022-08-18T15:38:21;5.80;;;3.40;;
60665;SDS011;59128;44.642;21.188;2022-08-18T15:40:54;6.30;;;2.83;;
60665;SDS011;59128;44.642;21.188;2022-08-18T15:43:24;6.25;;;3.22;;
60665;SDS011;59128;44.642;21.188;2022-08-18T15:45:51;3.17;;;2.78;;
60665;SDS011;59128;44.642;21.188;2022-08-18T15:48:19;5.78;;;3.05;;
60665;SDS011;59128;44.642;21.188;2022-08-18T15:50:45;4.18;;;3.08;;
60665;SDS011;59128;44.642;21.188;2022-08-18T15:53:13;4.50;;;3.00;;
60665;SDS011;59128;44.642;21.188;2022-08-18T15:55:40;3.15;;;2.83;;
60665;SDS011;59128;44.642;21.188;2022-08-18T15:58:06;7.28;;;3.60;;
60665;SDS011;59128;44.642;21.188;2022-08-18T16:00:33;5.20;;;3.03;;
60665;SDS011;59128;44.642;21.188;2022-08-18T16:03:03;3.30;;;3.00;;
60665;SDS011;59128;44.642;21.188;2022-08-18T16:05:31;5.20;;;3.15;;
60665;SDS011;59128;44.642;21.188;2022-08-18T16:07:58;3.50;;;3.20;;
60665;SDS011;59128;44.642;21.188;2022-08-18T16:10:25;3.30;;;2.80;;
60665;SDS011;59128;44.642;21.188;2022-08-18T16:12:52;4.57;;;3.03;;
60665;SDS011;59128;44.642;21.188;2022-08-18T16:15:20;6.00;;;3.25;;
60665;SDS011;59128;44.642;21.188;2022-08-18T16:17:46;3.80;;;2.85;;
60665;SDS011;59128;44.642;21.188;2022-08-18T16:20:12;4.55;;;3.42;;
60665;SDS011;59128;44.642;21.188;2022-08-18T16:22:38;5.20;;;3.22;;
60665;SDS011;59128;44.642;21.188;2022-08-18T16:25:05;4.07;;;3.15;;
60665;SDS011;59128;44.642;21.188;2022-08-18T16:27:32;4.50;;;3.65;;
60665;SDS011;59128;44.642;21.188;2022-08-18T16:29:58;9.13;;;3.58;;
60665;SDS011;59128;44.642;21.188;2022-08-18T16:32:24;6.57;;;3.50;;
60665;SDS011;59128;44.642;21.188;2022-08-18T16:34:50;10.35;;;4.10;;
60665;SDS011;59128;44.642;21.188;2022-08-18T16:37:17;13.30;;;3.70;;
60665;SDS011;59128;44.642;21.188;2022-08-18T16:39:43;16.27;;;4.65;;
60665;SDS011;59128;44.642;21.188;2022-08-18T16:42:09;15.48;;;4.72;;
60665;SDS011;59128;44.642;21.188;2022-08-18T16:44:36;9.73;;;4.53;;
60665;SDS011;59128;44.642;21.188;2022-08-18T16:47:03;18.42;;;5.53;;
60665;SDS011;59128;44.642;21.188;2022-08-18T16:49:29;12.77;;;4.10;;
60665;SDS011;59128;44.642;21.188;2022-08-18T16:51:57;9.88;;;4.50;;
60665;SDS011;59128;44.642;21.188;2022-08-18T16:54:26;8.20;;;3.80;;
60665;SDS011;59128;44.642;21.188;2022-08-18T16:56:52;8.98;;;4.15;;
60665;SDS011;59128;44.642;21.188;2022-08-18T16:59:18;7.63;;;4.43;;
60665;SDS011;59128;44.642;21.188;2022-08-18T17:02:02;10.38;;;4.22;;
60665;SDS011;59128;44.642;21.188;2022-08-18T17:04:47;8.02;;;4.00;;
60665;SDS011;59128;44.642;21.188;2022-08-18T17:07:15;6.07;;;4.22;;
60665;SDS011;59128;44.642;21.188;2022-08-18T17:09:41;18.17;;;5.65;;
60665;SDS011;59128;44.642;21.188;2022-08-18T17:12:07;10.30;;;6.30;;
60665;SDS011;59128;44.642;21.188;2022-08-18T17:14:33;11.73;;;5.90;;
60665;SDS011;59128;44.642;21.188;2022-08-18T17:17:01;14.07;;;5.82;;